sensor_id;sensor_type;location;lat;lon;timestamp;P1;durP1;ratioP1;P2;durP2;ratioP2
82159;SDS011;71734;50.876;7.372;2023-11-19T00:00:57;4.53;;;1.30;;
82159;SDS011;71734;50.876;7.372;2023-11-19T00:03:25;2.83;;;1.00;;
82159;SDS011;71734;50.876;7.372;2023-11-19T00:05:51;4.90;;;1.02;;
82159;SDS011;71734;50.876;7.372;2023-11-19T00:08:18;4.15;;;1.65;;
82159;SDS011;71734;50.876;7.372;2023-11-19T00:10:44;2.58;;;0.90;;
82159;SDS011;71734;50.876;7.372;2023-11-19T00:13:11;5.70;;;1.10;;
82159;SDS011;71734;50.876;7.372;2023-11-19T00:15:37;3.03;;;0.77;;
82159;SDS011;71734;50.876;7.372;2023-11-19T00:18:04;4.07;;;1.02;;
82159;SDS011;71734;50.876;7.372;2023-11-19T00:20:32;1.50;;;0.70;;
82159;SDS011;71734;50.876;7.372;2023-11-19T00:22:58;3.50;;;0.90;;
82159;SDS011;71734;50.876;7.372;2023-11-19T00:25:26;3.10;;;0.95;;
82159;SDS011;71734;50.876;7.372;2023-11-19T00:27:52;2.92;;;0.90;;
82159;SDS011;71734;50.876;7.372;2023-11-19T00:30:21;3.35;;;0.90;;
82159;SDS011;71734;50.876;7.372;2023-11-19T00:32:48;2.33;;;0.80;;
82159;SDS011;71734;50.876;7.372;2023-11-19T00:35:13;2.85;;;0.82;;
82159;SDS011;71734;50.876;7.372;2023-11-19T00:37:41;4.05;;;0.90;;
82159;SDS011;71734;50.876;7.372;2023-11-19T00:40:10;2.63;;;0.85;;
82159;SDS011;71734;50.876;7.372;2023-11-19T00:42:37;2.53;;;0.80;;
82159;SDS011;71734;50.876;7.372;2023-11-19T00:45:04;3.75;;;0.90;;
82159;SDS011;71734;50.876;7.372;2023-11-19T00:47:33;5.22;;;0.77;;
82159;SDS011;71734;50.876;7.372;2023-11-19T00:50:00;1.30;;;0.60;;
82159;SDS011;71734;50.876;7.372;2023-11-19T00:52:26;2.72;;;0.80;;
82159;SDS011;71734;50.876;7.372;2023-11-19T00:54:54;2.40;;;0.90;;
82159;SDS011;71734;50.876;7.372;2023-11-19T00:57:21;2.63;;;0.80;;
82159;SDS011;71734;50.876;7.372;2023-11-19T00:59:49;2.08;;;0.70;;
82159;SDS011;71734;50.876;7.372;2023-11-19T01:02:15;1.85;;;0.70;;
82159;SDS011;71734;50.876;7.372;2023-11-19T01:04:41;2.25;;;0.70;;
82159;SDS011;71734;50.876;7.372;2023-11-19T01:07:09;3.13;;;0.93;;
82159;SDS011;71734;50.876;7.372;2023-11-19T01:09:37;2.30;;;0.82;;
82159;SDS011;71734;50.876;7.372;2023-11-19T01:12:06;2.40;;;0.75;;
82159;SDS011;71734;50.876;7.372;2023-11-19T01:14:35;2.42;;;0.70;;
82159;SDS011;71734;50.876;7.372;2023-11-19T01:17:01;5.55;;;0.90;;
82159;SDS011;71734;50.876;7.372;2023-11-19T01:19:29;2.97;;;0.90;;
82159;SDS011;71734;50.876;7.372;2023-11-19T01:21:56;3.35;;;0.80;;
82159;SDS011;71734;50.876;7.372;2023-11-19T01:24:21;2.38;;;0.80;;
82159;SDS011;71734;50.876;7.372;2023-11-19T01:26:48;3.25;;;1.00;;
82159;SDS011;71734;50.876;7.372;2023-11-19T01:29:16;2.28;;;0.70;;
82159;SDS011;71734;50.876;7.372;2023-11-19T01:31:42;2.38;;;0.80;;
82159;SDS011;71734;50.876;7.372;2023-11-19T01:34:11;3.17;;;0.70;;
82159;SDS011;71734;50.876;7.372;2023-11-19T01:36:38;1.80;;;0.70;;
82159;SDS011;71734;50.876;7.372;2023-11-19T01:39:05;2.17;;;0.70;;
82159;SDS011;71734;50.876;7.372;2023-11-19T01:41:33;2.00;;;0.70;;
82159;SDS011;71734;50.876;7.372;2023-11-19T01:44:01;1.83;;;0.68;;
82159;SDS011;71734;50.876;7.372;2023-11-19T01:46:29;1.88;;;0.68;;
82159;SDS011;71734;50.876;7.372;2023-11-19T01:48:57;2.25;;;0.70;;
82159;SDS011;71734;50.876;7.372;2023-11-19T01:51:25;2.90;;;0.80;;
82159;SDS011;71734;50.876;7.372;2023-11-19T01:53:52;1.73;;;0.63;;
82159;SDS011;71734;50.876;7.372;2023-11-19T01:56:19;2.08;;;0.80;;
82159;SDS011;71734;50.876;7.372;2023-11-19T01:58:47;3.05;;;0.80;;
82159;SDS011;71734;50.876;7.372;2023-11-19T02:01:15;3.08;;;0.90;;
82159;SDS011;71734;50.876;7.372;2023-11-19T02:03:43;1.77;;;0.70;;
82159;SDS011;71734;50.876;7.372;2023-11-19T02:06:12;3.33;;;0.80;;
82159;SDS011;71734;50.876;7.372;2023-11-19T02:08:38;2.42;;;0.75;;
82159;SDS011;71734;50.876;7.372;2023-11-19T02:11:05;2.50;;;0.80;;
82159;SDS011;71734;50.876;7.372;2023-11-19T02:13:33;2.05;;;0.52;;
82159;SDS011;71734;50.876;7.372;2023-11-19T02:16:01;2.25;;;0.60;;
82159;SDS011;71734;50.876;7.372;2023-11-19T02:18:28;3.38;;;0.77;;
82159;SDS011;71734;50.876;7.372;2023-11-19T02:20:56;2.53;;;0.70;;
82159;SDS011;71734;50.876;7.372;2023-11-19T02:23:24;1.80;;;0.60;;
82159;SDS011;71734;50.876;7.372;2023-11-19T02:26:02;2.15;;;0.70;;
82159;SDS011;71734;50.876;7.372;2023-11-19T02:28:41;1.90;;;0.50;;
82159;SDS011;71734;50.876;7.372;2023-11-19T02:31:08;2.88;;;0.60;;
82159;SDS011;71734;50.876;7.372;2023-11-19T02:33:35;2.10;;;0.80;;
82159;SDS011;71734;50.876;7.372;2023-11-19T02:36:02;5.40;;;0.70;;
82159;SDS011;71734;50.876;7.372;2023-11-19T02:38:29;1.30;;;0.50;;
82159;SDS011;71734;50.876;7.372;2023-11-19T02:40:56;1.70;;;0.60;;
82159;SDS011;71734;50.876;7.372;2023-11-19T02:43:23;1.50;;;0.47;;
82159;SDS011;71734;50.876;7.372;2023-11-19T02:45:51;2.83;;;0.68;;
82159;SDS011;71734;50.876;7.372;2023-11-19T02:48:19;1.10;;;0.50;;
82159;SDS011;71734;50.876;7.372;2023-11-19T02:50:46;1.67;;;0.65;;
82159;SDS011;71734;50.876;7.372;2023-11-19T02:53:12;1.38;;;0.52;;
82159;SDS011;71734;50.876;7.372;2023-11-19T02:55:39;1.70;;;0.60;;
82159;SDS011;71734;50.876;7.372;2023-11-19T02:58:06;1.77;;;0.52;;
82159;SDS011;71734;50.876;7.372;2023-11-19T03:00:44;2.80;;;0.70;;
82159;SDS011;71734;50.876;7.372;2023-11-19T03:03:18;1.95;;;0.63;;
82159;SDS011;71734;50.876;7.372;2023-11-19T03:05:47;1.80;;;0.52;;
82159;SDS011;71734;50.876;7.372;2023-11-19T03:08:14;2.42;;;0.68;;
82159;SDS011;71734;50.876;7.372;2023-11-19T03:10:41;5.45;;;1.02;;
82159;SDS011;71734;50.876;7.372;2023-11-19T03:15:37;3.42;;;0.88;;
82159;SDS011;71734;50.876;7.372;2023-11-19T03:18:04;2.47;;;0.70;;
82159;SDS011;71734;50.876;7.372;2023-11-19T03:20:32;2.42;;;0.70;;
82159;SDS011;71734;50.876;7.372;2023-11-19T03:22:58;2.63;;;0.95;;
82159;SDS011;71734;50.876;7.372;2023-11-19T03:25:25;3.97;;;0.95;;
82159;SDS011;71734;50.876;7.372;2023-11-19T03:27:58;3.03;;;0.80;;
82159;SDS011;71734;50.876;7.372;2023-11-19T03:30:24;3.45;;;0.95;;
82159;SDS011;71734;50.876;7.372;2023-11-19T03:32:51;2.88;;;1.00;;
82159;SDS011;71734;50.876;7.372;2023-11-19T03:35:17;2.60;;;0.82;;
82159;SDS011;71734;50.876;7.372;2023-11-19T03:37:45;3.17;;;0.73;;
82159;SDS011;71734;50.876;7.372;2023-11-19T03:40:11;4.80;;;0.80;;
82159;SDS011;71734;50.876;7.372;2023-11-19T03:42:39;3.42;;;0.90;;
82159;SDS011;71734;50.876;7.372;2023-11-19T03:45:06;2.50;;;0.90;;
82159;SDS011;71734;50.876;7.372;2023-11-19T03:47:33;2.83;;;1.10;;
82159;SDS011;71734;50.876;7.372;2023-11-19T03:50:00;4.97;;;1.00;;
82159;SDS011;71734;50.876;7.372;2023-11-19T03:52:27;2.90;;;0.85;;
82159;SDS011;71734;50.876;7.372;2023-11-19T03:54:55;3.25;;;1.02;;
82159;SDS011;71734;50.876;7.372;2023-11-19T03:57:22;3.03;;;0.95;;
82159;SDS011;71734;50.876;7.372;2023-11-19T03:59:49;3.67;;;0.90;;
82159;SDS011;71734;50.876;7.372;2023-11-19T04:02:16;4.32;;;1.00;;
82159;SDS011;71734;50.876;7.372;2023-11-19T04:04:42;4.97;;;0.98;;
82159;SDS011;71734;50.876;7.372;2023-11-19T04:07:09;4.97;;;1.00;;
82159;SDS011;71734;50.876;7.372;2023-11-19T04:09:35;3.70;;;0.93;;
82159;SDS011;71734;50.876;7.372;2023-11-19T04:12:04;3.13;;;0.70;;
82159;SDS011;71734;50.876;7.372;2023-11-19T04:14:31;4.95;;;1.00;;
82159;SDS011;71734;50.876;7.372;2023-11-19T04:16:58;4.80;;;1.00;;
82159;SDS011;71734;50.876;7.372;2023-11-19T04:19:24;6.65;;;1.00;;
82159;SDS011;71734;50.876;7.372;2023-11-19T04:21:51;4.72;;;1.00;;
82159;SDS011;71734;50.876;7.372;2023-11-19T04:24:17;4.10;;;0.80;;
82159;SDS011;71734;50.876;7.372;2023-11-19T04:26:44;2.65;;;0.85;;
82159;SDS011;71734;50.876;7.372;2023-11-19T04:29:13;5.15;;;1.25;;
82159;SDS011;71734;50.876;7.372;2023-11-19T04:31:42;5.93;;;1.25;;
82159;SDS011;71734;50.876;7.372;2023-11-19T04:34:09;7.75;;;1.60;;
82159;SDS011;71734;50.876;7.372;2023-11-19T04:36:36;7.70;;;1.70;;
82159;SDS011;71734;50.876;7.372;2023-11-19T04:39:04;5.05;;;1.00;;
82159;SDS011;71734;50.876;7.372;2023-11-19T04:41:34;8.32;;;1.25;;
82159;SDS011;71734;50.876;7.372;2023-11-19T04:44:01;7.32;;;1.20;;
82159;SDS011;71734;50.876;7.372;2023-11-19T04:46:29;10.77;;;1.83;;
82159;SDS011;71734;50.876;7.372;2023-11-19T04:48:55;8.10;;;1.52;;
82159;SDS011;71734;50.876;7.372;2023-11-19T04:51:21;6.38;;;1.50;;
82159;SDS011;71734;50.876;7.372;2023-11-19T04:53:48;8.27;;;1.58;;
82159;SDS011;71734;50.876;7.372;2023-11-19T04:56:14;7.43;;;1.75;;
82159;SDS011;71734;50.876;7.372;2023-11-19T04:58:44;6.25;;;1.33;;
82159;SDS011;71734;50.876;7.372;2023-11-19T05:01:13;9.73;;;1.50;;
82159;SDS011;71734;50.876;7.372;2023-11-19T05:03:41;7.05;;;1.30;;
82159;SDS011;71734;50.876;7.372;2023-11-19T05:06:08;8.98;;;1.83;;
82159;SDS011;71734;50.876;7.372;2023-11-19T05:08:35;9.55;;;2.17;;
82159;SDS011;71734;50.876;7.372;2023-11-19T05:11:02;7.97;;;1.50;;
82159;SDS011;71734;50.876;7.372;2023-11-19T05:13:28;10.82;;;2.38;;
82159;SDS011;71734;50.876;7.372;2023-11-19T05:15:55;5.40;;;1.48;;
82159;SDS011;71734;50.876;7.372;2023-11-19T05:18:21;7.53;;;1.70;;
82159;SDS011;71734;50.876;7.372;2023-11-19T05:20:49;6.57;;;1.48;;
82159;SDS011;71734;50.876;7.372;2023-11-19T05:23:16;7.13;;;1.35;;
82159;SDS011;71734;50.876;7.372;2023-11-19T05:25:42;7.35;;;1.70;;
82159;SDS011;71734;50.876;7.372;2023-11-19T05:28:10;9.10;;;1.75;;
82159;SDS011;71734;50.876;7.372;2023-11-19T05:30:39;8.02;;;1.60;;
82159;SDS011;71734;50.876;7.372;2023-11-19T05:33:06;7.07;;;2.00;;
82159;SDS011;71734;50.876;7.372;2023-11-19T05:35:33;9.90;;;1.50;;
82159;SDS011;71734;50.876;7.372;2023-11-19T05:38:01;8.48;;;1.80;;
82159;SDS011;71734;50.876;7.372;2023-11-19T05:40:28;10.30;;;1.77;;
82159;SDS011;71734;50.876;7.372;2023-11-19T05:42:55;9.23;;;1.83;;
82159;SDS011;71734;50.876;7.372;2023-11-19T05:45:21;5.15;;;1.33;;
82159;SDS011;71734;50.876;7.372;2023-11-19T05:47:48;7.07;;;1.63;;
82159;SDS011;71734;50.876;7.372;2023-11-19T05:50:14;7.18;;;1.60;;
82159;SDS011;71734;50.876;7.372;2023-11-19T05:52:40;9.88;;;1.73;;
82159;SDS011;71734;50.876;7.372;2023-11-19T05:55:08;7.68;;;1.70;;
82159;SDS011;71734;50.876;7.372;2023-11-19T05:57:35;9.68;;;1.83;;
82159;SDS011;71734;50.876;7.372;2023-11-19T06:00:02;6.38;;;1.40;;
82159;SDS011;71734;50.876;7.372;2023-11-19T06:02:32;8.98;;;1.60;;
82159;SDS011;71734;50.876;7.372;2023-11-19T06:04:58;11.48;;;1.55;;
82159;SDS011;71734;50.876;7.372;2023-11-19T06:07:25;5.40;;;1.60;;
82159;SDS011;71734;50.876;7.372;2023-11-19T06:09:51;8.60;;;1.65;;
82159;SDS011;71734;50.876;7.372;2023-11-19T06:12:19;9.35;;;1.73;;
82159;SDS011;71734;50.876;7.372;2023-11-19T06:14:46;11.70;;;1.70;;
82159;SDS011;71734;50.876;7.372;2023-11-19T06:17:12;12.43;;;1.90;;
82159;SDS011;71734;50.876;7.372;2023-11-19T06:19:39;9.30;;;2.20;;
82159;SDS011;71734;50.876;7.372;2023-11-19T06:22:05;14.85;;;2.38;;
82159;SDS011;71734;50.876;7.372;2023-11-19T06:24:31;10.73;;;1.80;;
82159;SDS011;71734;50.876;7.372;2023-11-19T06:26:58;10.43;;;2.15;;
82159;SDS011;71734;50.876;7.372;2023-11-19T06:29:26;10.75;;;2.28;;
82159;SDS011;71734;50.876;7.372;2023-11-19T06:31:52;16.02;;;2.38;;
82159;SDS011;71734;50.876;7.372;2023-11-19T06:34:19;12.15;;;2.03;;
82159;SDS011;71734;50.876;7.372;2023-11-19T06:36:45;9.98;;;1.83;;
82159;SDS011;71734;50.876;7.372;2023-11-19T06:39:13;9.48;;;1.55;;
82159;SDS011;71734;50.876;7.372;2023-11-19T06:41:43;7.20;;;1.63;;
82159;SDS011;71734;50.876;7.372;2023-11-19T06:44:11;9.65;;;2.40;;
82159;SDS011;71734;50.876;7.372;2023-11-19T06:46:39;7.97;;;1.65;;
82159;SDS011;71734;50.876;7.372;2023-11-19T06:49:05;10.35;;;1.60;;
82159;SDS011;71734;50.876;7.372;2023-11-19T06:51:33;10.43;;;1.80;;
82159;SDS011;71734;50.876;7.372;2023-11-19T06:53:59;13.45;;;1.83;;
82159;SDS011;71734;50.876;7.372;2023-11-19T06:56:26;10.32;;;1.67;;
82159;SDS011;71734;50.876;7.372;2023-11-19T06:58:52;10.90;;;2.00;;
82159;SDS011;71734;50.876;7.372;2023-11-19T07:01:19;13.00;;;1.48;;
82159;SDS011;71734;50.876;7.372;2023-11-19T07:03:47;13.10;;;1.75;;
82159;SDS011;71734;50.876;7.372;2023-11-19T07:06:14;11.35;;;1.95;;
82159;SDS011;71734;50.876;7.372;2023-11-19T07:08:41;10.73;;;1.60;;
82159;SDS011;71734;50.876;7.372;2023-11-19T07:11:09;10.98;;;1.77;;
82159;SDS011;71734;50.876;7.372;2023-11-19T07:13:36;12.52;;;2.88;;
82159;SDS011;71734;50.876;7.372;2023-11-19T07:16:03;14.07;;;1.63;;
82159;SDS011;71734;50.876;7.372;2023-11-19T07:18:30;8.93;;;2.08;;
82159;SDS011;71734;50.876;7.372;2023-11-19T07:20:58;11.10;;;2.28;;
82159;SDS011;71734;50.876;7.372;2023-11-19T07:23:25;11.65;;;1.77;;
82159;SDS011;71734;50.876;7.372;2023-11-19T07:25:52;11.25;;;1.73;;
82159;SDS011;71734;50.876;7.372;2023-11-19T07:28:18;12.43;;;1.85;;
82159;SDS011;71734;50.876;7.372;2023-11-19T07:30:44;13.30;;;1.90;;
82159;SDS011;71734;50.876;7.372;2023-11-19T07:33:11;7.20;;;1.77;;
82159;SDS011;71734;50.876;7.372;2023-11-19T07:35:38;11.38;;;1.65;;
82159;SDS011;71734;50.876;7.372;2023-11-19T07:38:07;13.25;;;1.80;;
82159;SDS011;71734;50.876;7.372;2023-11-19T07:40:34;8.68;;;1.80;;
82159;SDS011;71734;50.876;7.372;2023-11-19T07:43:01;12.35;;;2.05;;
82159;SDS011;71734;50.876;7.372;2023-11-19T07:45:27;11.43;;;1.70;;
82159;SDS011;71734;50.876;7.372;2023-11-19T07:47:54;10.50;;;2.10;;
82159;SDS011;71734;50.876;7.372;2023-11-19T07:50:20;12.65;;;2.03;;
82159;SDS011;71734;50.876;7.372;2023-11-19T07:52:47;10.52;;;2.28;;
82159;SDS011;71734;50.876;7.372;2023-11-19T07:55:14;11.93;;;1.70;;
82159;SDS011;71734;50.876;7.372;2023-11-19T07:57:41;13.38;;;1.60;;
82159;SDS011;71734;50.876;7.372;2023-11-19T08:00:08;9.13;;;1.92;;
82159;SDS011;71734;50.876;7.372;2023-11-19T08:02:37;17.13;;;2.13;;
82159;SDS011;71734;50.876;7.372;2023-11-19T08:05:03;9.23;;;2.10;;
82159;SDS011;71734;50.876;7.372;2023-11-19T08:07:30;12.02;;;2.10;;
82159;SDS011;71734;50.876;7.372;2023-11-19T08:09:57;9.75;;;1.85;;
82159;SDS011;71734;50.876;7.372;2023-11-19T08:12:25;16.60;;;2.28;;
82159;SDS011;71734;50.876;7.372;2023-11-19T08:14:51;11.20;;;1.83;;
82159;SDS011;71734;50.876;7.372;2023-11-19T08:17:17;11.18;;;1.95;;
82159;SDS011;71734;50.876;7.372;2023-11-19T08:19:44;10.07;;;1.80;;
82159;SDS011;71734;50.876;7.372;2023-11-19T08:22:10;10.70;;;1.65;;
82159;SDS011;71734;50.876;7.372;2023-11-19T08:24:37;14.10;;;2.17;;
82159;SDS011;71734;50.876;7.372;2023-11-19T08:27:03;10.43;;;1.50;;
82159;SDS011;71734;50.876;7.372;2023-11-19T08:29:31;12.73;;;1.77;;
82159;SDS011;71734;50.876;7.372;2023-11-19T08:31:59;11.57;;;2.05;;
82159;SDS011;71734;50.876;7.372;2023-11-19T08:34:27;12.80;;;1.80;;
82159;SDS011;71734;50.876;7.372;2023-11-19T08:36:53;10.30;;;2.00;;
82159;SDS011;71734;50.876;7.372;2023-11-19T08:39:19;8.98;;;1.60;;
82159;SDS011;71734;50.876;7.372;2023-11-19T08:41:46;13.70;;;2.40;;
82159;SDS011;71734;50.876;7.372;2023-11-19T08:44:12;21.00;;;2.40;;
82159;SDS011;71734;50.876;7.372;2023-11-19T08:46:40;18.20;;;1.75;;
82159;SDS011;71734;50.876;7.372;2023-11-19T08:49:12;9.45;;;1.85;;
82159;SDS011;71734;50.876;7.372;2023-11-19T08:51:39;18.40;;;2.00;;
82159;SDS011;71734;50.876;7.372;2023-11-19T08:54:05;11.38;;;2.10;;
82159;SDS011;71734;50.876;7.372;2023-11-19T08:56:32;10.25;;;1.55;;
82159;SDS011;71734;50.876;7.372;2023-11-19T08:59:00;11.32;;;1.60;;
82159;SDS011;71734;50.876;7.372;2023-11-19T09:01:26;11.18;;;2.25;;
82159;SDS011;71734;50.876;7.372;2023-11-19T09:03:55;14.07;;;1.90;;
82159;SDS011;71734;50.876;7.372;2023-11-19T09:06:21;10.05;;;1.63;;
82159;SDS011;71734;50.876;7.372;2023-11-19T09:08:47;10.18;;;1.60;;
82159;SDS011;71734;50.876;7.372;2023-11-19T09:11:14;11.05;;;2.05;;
82159;SDS011;71734;50.876;7.372;2023-11-19T09:13:40;12.50;;;2.22;;
82159;SDS011;71734;50.876;7.372;2023-11-19T09:16:07;11.80;;;2.08;;
82159;SDS011;71734;50.876;7.372;2023-11-19T09:18:34;11.57;;;1.40;;
82159;SDS011;71734;50.876;7.372;2023-11-19T09:21:02;10.10;;;2.05;;
82159;SDS011;71734;50.876;7.372;2023-11-19T09:23:29;11.60;;;1.45;;
82159;SDS011;71734;50.876;7.372;2023-11-19T09:25:57;11.07;;;1.60;;
82159;SDS011;71734;50.876;7.372;2023-11-19T09:28:25;8.32;;;1.50;;
82159;SDS011;71734;50.876;7.372;2023-11-19T09:30:51;10.93;;;2.05;;
82159;SDS011;71734;50.876;7.372;2023-11-19T09:33:17;11.65;;;1.70;;
82159;SDS011;71734;50.876;7.372;2023-11-19T09:35:44;16.50;;;1.70;;
82159;SDS011;71734;50.876;7.372;2023-11-19T09:38:12;13.70;;;2.45;;
82159;SDS011;71734;50.876;7.372;2023-11-19T09:40:39;10.95;;;1.83;;
82159;SDS011;71734;50.876;7.372;2023-11-19T09:43:05;12.00;;;1.77;;
82159;SDS011;71734;50.876;7.372;2023-11-19T09:45:37;12.63;;;1.73;;
82159;SDS011;71734;50.876;7.372;2023-11-19T09:48:11;11.93;;;1.60;;
82159;SDS011;71734;50.876;7.372;2023-11-19T09:50:38;11.23;;;1.77;;
82159;SDS011;71734;50.876;7.372;2023-11-19T09:53:06;15.20;;;1.80;;
82159;SDS011;71734;50.876;7.372;2023-11-19T09:55:34;10.52;;;1.88;;
82159;SDS011;71734;50.876;7.372;2023-11-19T09:58:00;14.80;;;1.80;;
82159;SDS011;71734;50.876;7.372;2023-11-19T10:00:27;12.13;;;2.13;;
82159;SDS011;71734;50.876;7.372;2023-11-19T10:02:54;11.73;;;2.35;;
82159;SDS011;71734;50.876;7.372;2023-11-19T10:05:22;12.95;;;1.83;;
82159;SDS011;71734;50.876;7.372;2023-11-19T10:07:50;11.88;;;1.95;;
82159;SDS011;71734;50.876;7.372;2023-11-19T10:10:16;10.55;;;2.25;;
82159;SDS011;71734;50.876;7.372;2023-11-19T10:12:44;10.52;;;2.17;;
82159;SDS011;71734;50.876;7.372;2023-11-19T10:15:14;16.83;;;2.05;;
82159;SDS011;71734;50.876;7.372;2023-11-19T10:17:46;10.50;;;1.80;;
82159;SDS011;71734;50.876;7.372;2023-11-19T10:20:12;12.00;;;2.10;;
82159;SDS011;71734;50.876;7.372;2023-11-19T10:22:40;13.40;;;1.90;;
82159;SDS011;71734;50.876;7.372;2023-11-19T10:25:18;9.48;;;2.03;;
82159;SDS011;71734;50.876;7.372;2023-11-19T10:27:49;10.85;;;1.65;;
82159;SDS011;71734;50.876;7.372;2023-11-19T10:30:17;13.02;;;2.10;;
82159;SDS011;71734;50.876;7.372;2023-11-19T10:32:44;12.73;;;1.63;;
82159;SDS011;71734;50.876;7.372;2023-11-19T10:35:10;13.98;;;2.15;;
82159;SDS011;71734;50.876;7.372;2023-11-19T10:37:38;11.55;;;1.60;;
82159;SDS011;71734;50.876;7.372;2023-11-19T10:40:08;11.27;;;1.50;;
82159;SDS011;71734;50.876;7.372;2023-11-19T10:42:35;12.40;;;1.63;;
82159;SDS011;71734;50.876;7.372;2023-11-19T10:45:04;11.32;;;2.00;;
82159;SDS011;71734;50.876;7.372;2023-11-19T10:47:32;8.98;;;1.58;;
82159;SDS011;71734;50.876;7.372;2023-11-19T10:50:00;10.43;;;1.48;;
82159;SDS011;71734;50.876;7.372;2023-11-19T10:52:27;12.30;;;1.80;;
82159;SDS011;71734;50.876;7.372;2023-11-19T10:54:53;11.65;;;1.80;;
82159;SDS011;71734;50.876;7.372;2023-11-19T10:57:26;12.43;;;1.90;;
82159;SDS011;71734;50.876;7.372;2023-11-19T11:00:00;11.40;;;1.63;;
82159;SDS011;71734;50.876;7.372;2023-11-19T11:02:34;9.30;;;1.92;;
82159;SDS011;71734;50.876;7.372;2023-11-19T11:05:06;13.18;;;2.42;;
82159;SDS011;71734;50.876;7.372;2023-11-19T11:07:33;10.95;;;1.60;;
82159;SDS011;71734;50.876;7.372;2023-11-19T11:10:01;9.63;;;1.83;;
82159;SDS011;71734;50.876;7.372;2023-11-19T11:12:28;14.73;;;1.80;;
82159;SDS011;71734;50.876;7.372;2023-11-19T11:15:01;14.25;;;1.80;;
82159;SDS011;71734;50.876;7.372;2023-11-19T11:17:30;12.02;;;2.00;;
82159;SDS011;71734;50.876;7.372;2023-11-19T11:20:00;10.43;;;2.10;;
82159;SDS011;71734;50.876;7.372;2023-11-19T11:22:27;11.77;;;2.00;;
82159;SDS011;71734;50.876;7.372;2023-11-19T11:25:05;12.45;;;2.00;;
82159;SDS011;71734;50.876;7.372;2023-11-19T11:27:58;14.55;;;2.25;;
82159;SDS011;71734;50.876;7.372;2023-11-19T11:30:40;10.63;;;1.75;;
82159;SDS011;71734;50.876;7.372;2023-11-19T11:33:21;10.63;;;1.98;;
82159;SDS011;71734;50.876;7.372;2023-11-19T11:36:01;14.35;;;2.47;;
82159;SDS011;71734;50.876;7.372;2023-11-19T11:38:39;12.40;;;2.47;;
82159;SDS011;71734;50.876;7.372;2023-11-19T11:41:15;10.40;;;2.35;;
82159;SDS011;71734;50.876;7.372;2023-11-19T11:43:45;13.52;;;1.75;;
82159;SDS011;71734;50.876;7.372;2023-11-19T11:49:16;12.40;;;1.67;;
82159;SDS011;71734;50.876;7.372;2023-11-19T11:51:58;10.77;;;1.67;;
82159;SDS011;71734;50.876;7.372;2023-11-19T11:54:26;11.68;;;1.60;;
82159;SDS011;71734;50.876;7.372;2023-11-19T11:57:00;9.68;;;2.08;;
82159;SDS011;71734;50.876;7.372;2023-11-19T11:59:31;13.48;;;2.08;;
82159;SDS011;71734;50.876;7.372;2023-11-19T12:02:03;12.48;;;1.70;;
82159;SDS011;71734;50.876;7.372;2023-11-19T12:04:30;9.73;;;1.88;;
82159;SDS011;71734;50.876;7.372;2023-11-19T12:07:05;10.35;;;1.65;;
82159;SDS011;71734;50.876;7.372;2023-11-19T12:09:32;10.13;;;1.58;;
82159;SDS011;71734;50.876;7.372;2023-11-19T12:12:12;12.00;;;2.15;;
82159;SDS011;71734;50.876;7.372;2023-11-19T12:15:00;10.13;;;2.42;;
82159;SDS011;71734;50.876;7.372;2023-11-19T12:17:36;10.85;;;1.88;;
82159;SDS011;71734;50.876;7.372;2023-11-19T12:20:09;9.77;;;1.60;;
82159;SDS011;71734;50.876;7.372;2023-11-19T12:22:37;9.68;;;1.48;;
82159;SDS011;71734;50.876;7.372;2023-11-19T12:25:05;6.22;;;1.33;;
82159;SDS011;71734;50.876;7.372;2023-11-19T12:27:33;7.53;;;1.30;;
82159;SDS011;71734;50.876;7.372;2023-11-19T12:30:00;10.60;;;1.50;;
82159;SDS011;71734;50.876;7.372;2023-11-19T12:32:36;7.72;;;1.42;;
82159;SDS011;71734;50.876;7.372;2023-11-19T12:35:03;6.55;;;1.38;;
82159;SDS011;71734;50.876;7.372;2023-11-19T12:37:31;7.78;;;1.52;;
82159;SDS011;71734;50.876;7.372;2023-11-19T12:39:59;8.15;;;1.48;;
82159;SDS011;71734;50.876;7.372;2023-11-19T12:42:36;8.13;;;1.30;;
82159;SDS011;71734;50.876;7.372;2023-11-19T12:45:04;11.55;;;2.10;;
82159;SDS011;71734;50.876;7.372;2023-11-19T12:47:31;6.65;;;1.30;;
82159;SDS011;71734;50.876;7.372;2023-11-19T12:49:57;11.80;;;1.50;;
82159;SDS011;71734;50.876;7.372;2023-11-19T12:52:24;11.38;;;1.63;;
82159;SDS011;71734;50.876;7.372;2023-11-19T12:54:51;8.35;;;1.30;;
82159;SDS011;71734;50.876;7.372;2023-11-19T12:57:19;10.02;;;1.30;;
82159;SDS011;71734;50.876;7.372;2023-11-19T12:59:55;7.45;;;1.40;;
82159;SDS011;71734;50.876;7.372;2023-11-19T13:02:22;8.23;;;1.38;;
82159;SDS011;71734;50.876;7.372;2023-11-19T13:04:49;9.70;;;2.40;;
82159;SDS011;71734;50.876;7.372;2023-11-19T13:07:20;8.27;;;1.40;;
82159;SDS011;71734;50.876;7.372;2023-11-19T13:09:46;8.57;;;1.42;;
82159;SDS011;71734;50.876;7.372;2023-11-19T13:12:13;11.85;;;1.80;;
82159;SDS011;71734;50.876;7.372;2023-11-19T13:14:43;9.38;;;1.98;;
82159;SDS011;71734;50.876;7.372;2023-11-19T13:17:15;7.72;;;1.30;;
82159;SDS011;71734;50.876;7.372;2023-11-19T13:19:41;8.48;;;1.35;;
82159;SDS011;71734;50.876;7.372;2023-11-19T13:22:08;10.05;;;1.40;;
82159;SDS011;71734;50.876;7.372;2023-11-19T13:24:34;8.68;;;1.40;;
82159;SDS011;71734;50.876;7.372;2023-11-19T13:27:01;7.78;;;1.17;;
82159;SDS011;71734;50.876;7.372;2023-11-19T13:29:29;7.45;;;1.80;;
82159;SDS011;71734;50.876;7.372;2023-11-19T13:31:56;7.80;;;1.33;;
82159;SDS011;71734;50.876;7.372;2023-11-19T13:34:23;8.02;;;1.38;;
82159;SDS011;71734;50.876;7.372;2023-11-19T13:36:49;9.70;;;1.58;;
82159;SDS011;71734;50.876;7.372;2023-11-19T13:39:16;11.10;;;1.42;;
82159;SDS011;71734;50.876;7.372;2023-11-19T13:41:47;6.85;;;1.75;;
82159;SDS011;71734;50.876;7.372;2023-11-19T13:44:15;9.18;;;1.33;;
82159;SDS011;71734;50.876;7.372;2023-11-19T13:46:41;9.52;;;1.70;;
82159;SDS011;71734;50.876;7.372;2023-11-19T13:49:12;6.82;;;1.50;;
82159;SDS011;71734;50.876;7.372;2023-11-19T13:51:39;7.75;;;1.02;;
82159;SDS011;71734;50.876;7.372;2023-11-19T13:54:05;8.38;;;1.30;;
82159;SDS011;71734;50.876;7.372;2023-11-19T13:56:37;10.13;;;1.40;;
82159;SDS011;71734;50.876;7.372;2023-11-19T13:59:06;9.48;;;1.30;;
82159;SDS011;71734;50.876;7.372;2023-11-19T14:01:36;4.75;;;1.00;;
82159;SDS011;71734;50.876;7.372;2023-11-19T14:04:03;6.55;;;1.25;;
82159;SDS011;71734;50.876;7.372;2023-11-19T14:09:34;9.23;;;1.48;;
82159;SDS011;71734;50.876;7.372;2023-11-19T14:12:01;8.02;;;1.27;;
82159;SDS011;71734;50.876;7.372;2023-11-19T14:14:29;12.25;;;1.42;;
82159;SDS011;71734;50.876;7.372;2023-11-19T14:16:55;11.55;;;1.63;;
82159;SDS011;71734;50.876;7.372;2023-11-19T14:19:22;11.43;;;1.95;;
82159;SDS011;71734;50.876;7.372;2023-11-19T14:31:47;9.95;;;1.90;;
82159;SDS011;71734;50.876;7.372;2023-11-19T15:15:19;9.55;;;1.60;;
82159;SDS011;71734;50.876;7.372;2023-11-19T15:18:37;10.30;;;1.38;;
82159;SDS011;71734;50.876;7.372;2023-11-19T15:22:43;8.30;;;1.17;;
82159;SDS011;71734;50.876;7.372;2023-11-19T15:27:56;7.35;;;1.10;;
82159;SDS011;71734;50.876;7.372;2023-11-19T15:31:02;9.93;;;1.20;;
82159;SDS011;71734;50.876;7.372;2023-11-19T15:39:20;7.80;;;1.00;;
82159;SDS011;71734;50.876;7.372;2023-11-19T15:42:14;9.18;;;1.23;;
82159;SDS011;71734;50.876;7.372;2023-11-19T15:44:57;10.52;;;1.50;;
82159;SDS011;71734;50.876;7.372;2023-11-19T17:55:55;7.75;;;1.67;;
82159;SDS011;71734;50.876;7.372;2023-11-19T17:58:24;12.40;;;2.22;;
82159;SDS011;71734;50.876;7.372;2023-11-19T18:00:51;10.68;;;1.42;;
82159;SDS011;71734;50.876;7.372;2023-11-19T18:03:17;9.45;;;2.03;;
82159;SDS011;71734;50.876;7.372;2023-11-19T18:05:45;15.75;;;2.20;;
82159;SDS011;71734;50.876;7.372;2023-11-19T18:08:13;12.35;;;1.95;;